createdAt,value
2022-11-26T00:00:24.909Z,17.60
2022-11-26T00:02:53.238Z,19.60
2022-11-26T00:05:26.852Z,18.90
2022-11-26T00:07:56.034Z,19.48
2022-11-26T00:10:25.846Z,19.07
2022-11-26T00:12:59.904Z,17.75
2022-11-26T00:15:38.898Z,17.63
2022-11-26T00:18:05.573Z,17.17
2022-11-26T00:20:32.777Z,19.00
2022-11-26T00:23:09.865Z,18.38
2022-11-26T00:25:50.888Z,17.83
2022-11-26T00:28:33.486Z,19.70
2022-11-26T00:31:08.799Z,21.15
2022-11-26T00:33:35.426Z,21.15
2022-11-26T00:36:32.785Z,20.90
2022-11-26T00:39:10.820Z,21.77
2022-11-26T00:41:38.923Z,21.35
2022-11-26T00:44:25.799Z,19.58
2022-11-26T00:46:52.985Z,20.55
2022-11-26T00:49:27.805Z,20.77
2022-11-26T00:52:01.286Z,21.95
2022-11-26T00:54:36.062Z,20.60
2022-11-26T00:57:02.922Z,18.45
2022-11-26T00:59:35.847Z,19.90
2022-11-26T01:02:02.544Z,17.27
2022-11-26T01:04:36.332Z,20.10
2022-11-26T01:07:03.632Z,19.05
2022-11-26T01:09:36.868Z,22.10
2022-11-26T01:12:03.613Z,21.85
2022-11-26T01:14:30.233Z,20.52
2022-11-26T01:17:03.890Z,19.27
2022-11-26T01:19:36.867Z,21.33
2022-11-26T01:22:09.860Z,19.85
2022-11-26T01:24:36.689Z,18.83
2022-11-26T01:27:09.854Z,18.17
2022-11-26T01:29:36.450Z,20.83
2022-11-26T01:32:03.228Z,18.83
2022-11-26T01:34:37.203Z,19.60
2022-11-26T01:37:14.183Z,18.80
2022-11-26T01:39:47.891Z,18.52
2022-11-26T01:42:46.852Z,21.88
2022-11-26T01:45:23.138Z,20.30
2022-11-26T01:47:56.805Z,22.05
2022-11-26T01:51:04.796Z,21.45
2022-11-26T01:53:49.795Z,20.35
2022-11-26T01:56:27.915Z,19.98
2022-11-26T01:59:00.216Z,21.95
2022-11-26T02:01:26.871Z,20.23
2022-11-26T02:04:06.904Z,20.23
2022-11-26T02:06:34.644Z,22.90
2022-11-26T02:09:09.868Z,22.05
2022-11-26T02:11:43.860Z,26.15
2022-11-26T02:14:47.864Z,25.67
2022-11-26T02:17:53.847Z,25.90
2022-11-26T02:20:35.475Z,26.55
2022-11-26T02:23:36.931Z,27.42
2022-11-26T02:26:29.909Z,25.25
2022-11-26T02:29:16.975Z,25.45
2022-11-26T02:32:35.820Z,25.27
2022-11-26T02:35:18.817Z,22.88
2022-11-26T02:37:54.442Z,25.60
2022-11-26T02:40:27.860Z,24.48
2022-11-26T02:43:00.883Z,25.40
2022-11-26T02:45:55.939Z,25.45
2022-11-26T02:48:28.500Z,24.58
2022-11-26T02:51:22.816Z,26.50
2022-11-26T02:53:51.752Z,27.55
2022-11-26T02:56:33.889Z,29.42
2022-11-26T02:59:00.828Z,27.35
2022-11-26T03:01:51.812Z,26.55
2022-11-26T03:04:25.403Z,28.73
2022-11-26T03:07:02.876Z,28.70
2022-11-26T03:09:48.315Z,29.38
2022-11-26T03:12:21.879Z,27.48
2022-11-26T03:14:48.757Z,29.52
2022-11-26T03:17:15.753Z,27.05
2022-11-26T03:19:48.858Z,27.67
2022-11-26T03:22:16.156Z,26.27
2022-11-26T03:24:43.156Z,28.73
2022-11-26T03:27:16.791Z,25.73
2022-11-26T03:29:43.373Z,27.45
2022-11-26T03:32:16.846Z,28.38
2022-11-26T03:34:43.482Z,28.58
2022-11-26T03:37:16.878Z,30.63
2022-11-26T03:39:43.618Z,29.05
2022-11-26T03:42:10.517Z,31.15
2022-11-26T03:44:43.821Z,27.77
2022-11-26T03:47:10.461Z,27.15
2022-11-26T03:49:43.863Z,29.75
2022-11-26T03:52:16.886Z,29.10
2022-11-26T03:54:56.866Z,31.42
2022-11-26T03:57:23.522Z,30.23
2022-11-26T03:59:50.142Z,26.85
2022-11-26T04:02:22.801Z,30.33
2022-11-26T04:04:55.864Z,30.83
2022-11-26T04:07:22.715Z,33.30
2022-11-26T04:09:55.844Z,31.25
2022-11-26T04:12:22.492Z,35.70
2022-11-26T04:14:49.141Z,35.50
2022-11-26T04:17:21.853Z,36.13
2022-11-26T04:19:54.875Z,37.17
2022-11-26T04:22:27.902Z,37.13
2022-11-26T04:24:54.491Z,38.75
2022-11-26T04:27:27.948Z,36.45
2022-11-26T04:29:54.534Z,37.58
2022-11-26T04:32:27.963Z,37.30
2022-11-26T04:34:54.575Z,38.03
2022-11-26T04:37:27.869Z,36.05
2022-11-26T04:39:54.514Z,34.78
2022-11-26T04:42:27.999Z,34.15
2022-11-26T04:44:54.621Z,34.85
2022-11-26T04:47:27.861Z,34.17
2022-11-26T04:50:00.820Z,34.60
2022-11-26T04:52:27.422Z,38.03
2022-11-26T04:55:00.856Z,36.53
2022-11-26T04:57:33.835Z,37.53
2022-11-26T05:00:00.542Z,39.28
2022-11-26T05:02:33.880Z,38.53
2022-11-26T05:05:06.890Z,39.00
2022-11-26T05:07:33.889Z,39.38
2022-11-26T05:10:00.710Z,41.33
2022-11-26T05:12:33.932Z,43.53
2022-11-26T05:15:06.854Z,41.55
2022-11-26T05:17:39.895Z,40.63
2022-11-26T05:20:07.267Z,42.63
2022-11-26T05:22:33.991Z,41.03
2022-11-26T05:25:06.863Z,38.97
2022-11-26T05:27:39.875Z,37.50
2022-11-26T05:30:07.457Z,40.28
2022-11-26T05:32:34.146Z,37.53
2022-11-26T05:35:07.836Z,39.83
2022-11-26T05:37:34.448Z,39.03
2022-11-26T05:40:07.805Z,37.20
2022-11-26T05:42:35.901Z,41.63
2022-11-26T05:45:09.813Z,38.83
2022-11-26T05:47:36.496Z,39.90
2022-11-26T05:50:17.872Z,36.95
2022-11-26T05:52:44.547Z,39.33
2022-11-26T05:55:11.513Z,38.15
2022-11-26T05:57:44.824Z,36.80
2022-11-26T06:00:18.815Z,38.72
2022-11-26T06:02:45.785Z,39.33
2022-11-26T06:05:19.899Z,37.92
2022-11-26T06:07:46.599Z,36.28
2022-11-26T06:10:14.019Z,36.70
2022-11-26T06:12:46.825Z,34.20
2022-11-26T06:15:13.460Z,35.40
2022-11-26T06:17:46.899Z,35.80
2022-11-26T06:20:20.881Z,35.25
2022-11-26T06:22:53.886Z,33.17
2022-11-26T06:25:20.510Z,34.40
2022-11-26T06:27:53.887Z,32.55
2022-11-26T06:30:21.363Z,33.83
2022-11-26T06:32:54.815Z,33.08
2022-11-26T06:35:21.465Z,34.03
2022-11-26T06:37:54.836Z,31.38
2022-11-26T06:40:21.536Z,30.65
2022-11-26T06:42:58.922Z,32.38
2022-11-26T06:45:25.775Z,35.65
2022-11-26T06:47:52.594Z,32.53
2022-11-26T06:50:27.850Z,30.20
2022-11-26T06:53:07.815Z,30.83
2022-11-26T06:55:34.409Z,30.77
2022-11-26T06:58:07.834Z,31.45
2022-11-26T07:00:34.460Z,30.00
2022-11-26T07:03:01.142Z,28.85
2022-11-26T07:05:34.826Z,28.48
2022-11-26T07:08:01.529Z,29.63
2022-11-26T07:10:29.173Z,30.00
2022-11-26T07:13:02.869Z,27.88
2022-11-26T07:15:29.641Z,28.52
2022-11-26T07:18:04.935Z,27.75
2022-11-26T07:20:31.624Z,28.90
2022-11-26T07:22:58.349Z,27.13
2022-11-26T07:25:34.612Z,25.85
2022-11-26T07:28:07.910Z,27.85
2022-11-26T07:30:34.579Z,26.63
2022-11-26T07:33:01.798Z,26.08
2022-11-26T07:35:34.874Z,26.23
2022-11-26T07:38:01.513Z,25.50
2022-11-26T07:40:28.260Z,24.35
2022-11-26T07:43:01.966Z,23.92
2022-11-26T07:45:34.874Z,24.63
2022-11-26T07:48:01.546Z,25.27
2022-11-26T07:50:41.875Z,23.83
2022-11-26T07:53:15.342Z,25.00
2022-11-26T07:55:48.879Z,23.10
2022-11-26T07:58:15.605Z,22.67
2022-11-26T08:00:42.226Z,23.50
2022-11-26T08:03:15.890Z,21.80
2022-11-26T08:05:43.581Z,22.02
2022-11-26T08:08:17.884Z,23.42
2022-11-26T08:10:50.845Z,21.45
2022-11-26T08:13:23.867Z,22.55
2022-11-26T08:15:56.870Z,22.40
2022-11-26T08:18:29.908Z,22.65
2022-11-26T08:20:57.852Z,22.15
2022-11-26T08:23:25.476Z,20.75
2022-11-26T08:26:21.630Z,21.67
2022-11-26T08:28:47.154Z,22.88
2022-11-26T08:31:22.938Z,21.92
2022-11-26T08:33:49.600Z,22.30
2022-11-26T08:36:16.277Z,21.42
2022-11-26T08:38:49.863Z,22.70
2022-11-26T08:41:16.507Z,20.83
2022-11-26T08:46:36.945Z,19.15
2022-11-26T08:49:04.164Z,21.17
2022-11-26T08:51:44.883Z,21.20
2022-11-26T08:54:11.901Z,20.73
2022-11-26T08:56:38.610Z,18.83
2022-11-26T08:59:11.888Z,18.60
2022-11-26T09:01:38.650Z,18.17
2022-11-26T09:04:05.980Z,17.85
2022-11-26T09:06:42.884Z,18.08
2022-11-26T09:09:12.873Z,16.67
2022-11-26T09:14:17.813Z,16.60
2022-11-26T09:16:50.862Z,15.80
2022-11-26T09:19:18.337Z,16.92
2022-11-26T09:21:52.894Z,15.55
2022-11-26T09:24:26.844Z,16.08
2022-11-26T09:27:07.340Z,16.55
2022-11-26T09:29:34.396Z,16.90
2022-11-26T09:32:23.374Z,15.10
2022-11-26T09:34:58.787Z,16.55
2022-11-26T09:37:31.859Z,15.55
2022-11-26T09:39:58.449Z,16.45
2022-11-26T09:42:46.894Z,14.15
2022-11-26T09:45:43.635Z,14.82
2022-11-26T09:48:25.898Z,14.82
2022-11-26T09:51:14.842Z,14.30
2022-11-26T09:53:45.305Z,13.32
2022-11-26T09:56:24.925Z,13.40
2022-11-26T09:59:03.649Z,13.77
2022-11-26T10:01:39.883Z,13.38
2022-11-26T10:04:08.645Z,12.48
2022-11-26T10:06:48.839Z,13.43
2022-11-26T10:12:24.679Z,11.80
2022-11-26T10:15:28.214Z,12.93
2022-11-26T10:18:21.862Z,12.85
2022-11-26T10:21:03.699Z,14.10
2022-11-26T10:23:39.809Z,13.73
2022-11-26T10:26:15.942Z,12.70
2022-11-26T10:28:57.826Z,14.77
2022-11-26T10:31:28.436Z,14.35
2022-11-26T10:34:11.915Z,13.30
2022-11-26T10:36:41.587Z,11.88
2022-11-26T10:39:20.879Z,12.43
2022-11-26T10:41:48.080Z,12.48
2022-11-26T10:44:42.019Z,11.98
2022-11-26T10:47:28.406Z,10.65
2022-11-26T10:50:47.133Z,11.02
2022-11-26T10:53:23.221Z,10.60
2022-11-26T10:56:04.895Z,9.85
2022-11-26T10:58:39.808Z,8.80
2022-11-26T11:01:13.889Z,9.90
2022-11-26T11:04:13.084Z,9.13
2022-11-26T11:06:50.915Z,8.93
2022-11-26T11:09:28.704Z,8.25
2022-11-26T11:12:19.904Z,9.50
2022-11-26T11:14:54.784Z,8.10
2022-11-26T11:17:35.870Z,8.70
2022-11-26T11:20:22.865Z,7.70
2022-11-26T11:23:08.885Z,7.78
2022-11-26T11:25:44.872Z,7.72
2022-11-26T11:28:30.857Z,8.93
2022-11-26T11:31:22.292Z,8.13
2022-11-26T11:33:56.817Z,7.00
2022-11-26T11:36:29.663Z,8.13
2022-11-26T11:39:08.795Z,7.18
2022-11-26T11:41:48.915Z,7.95
2022-11-26T11:44:37.079Z,8.38
2022-11-26T11:47:13.107Z,8.15
2022-11-26T11:50:07.791Z,8.70
2022-11-26T11:53:14.805Z,7.38
2022-11-26T11:56:20.853Z,7.90
2022-11-26T11:58:58.536Z,9.02
2022-11-26T12:01:48.937Z,8.30
2022-11-26T12:04:27.366Z,8.68
2022-11-26T12:07:33.863Z,9.15
2022-11-26T12:10:16.552Z,8.77
2022-11-26T12:12:56.923Z,8.65
2022-11-26T12:15:30.816Z,7.45
2022-11-26T12:18:07.816Z,10.23
2022-11-26T12:20:47.915Z,8.80
2022-11-26T12:23:52.807Z,8.98
2022-11-26T12:26:32.798Z,8.02
2022-11-26T12:29:12.823Z,9.75
2022-11-26T12:31:54.879Z,9.20
2022-11-26T12:34:40.065Z,7.90
2022-11-26T12:37:19.082Z,6.95
2022-11-26T12:39:53.864Z,6.00
2022-11-26T12:42:42.233Z,6.22
2022-11-26T12:45:31.932Z,5.95
2022-11-26T12:48:10.908Z,6.90
2022-11-26T12:51:07.830Z,5.70
2022-11-26T12:54:10.874Z,5.57
2022-11-26T12:57:01.832Z,6.05
2022-11-26T12:59:44.500Z,5.78
2022-11-26T13:02:31.944Z,6.10
2022-11-26T13:04:59.673Z,5.68
2022-11-26T13:07:51.913Z,5.38
2022-11-26T13:10:30.109Z,5.95
2022-11-26T13:13:23.939Z,5.13
2022-11-26T13:16:28.729Z,4.68
2022-11-26T13:19:10.887Z,5.50
2022-11-26T13:22:21.925Z,4.30
2022-11-26T13:25:08.899Z,6.25
2022-11-26T13:28:23.859Z,4.43
2022-11-26T13:31:45.848Z,5.28
2022-11-26T13:34:46.888Z,5.75
2022-11-26T13:37:25.692Z,5.25
2022-11-26T13:40:37.083Z,5.68
2022-11-26T13:43:41.620Z,6.28
2022-11-26T13:46:55.921Z,5.30
2022-11-26T13:49:37.203Z,6.07
2022-11-26T13:52:28.802Z,5.40
2022-11-26T13:55:00.948Z,5.63
2022-11-26T13:57:43.874Z,5.20
2022-11-26T14:00:11.286Z,5.53
2022-11-26T14:02:42.513Z,5.18
2022-11-26T14:05:20.916Z,6.45
2022-11-26T14:07:47.817Z,6.10
2022-11-26T14:10:43.777Z,5.28
2022-11-26T14:13:11.918Z,6.18
2022-11-26T14:15:47.814Z,6.78
2022-11-26T14:18:22.901Z,5.55
2022-11-26T14:20:59.647Z,7.00
2022-11-26T14:23:48.822Z,8.18
2022-11-26T14:26:37.712Z,8.05
2022-11-26T14:29:18.872Z,7.70
2022-11-26T14:31:51.288Z,7.75
2022-11-26T14:34:48.862Z,8.32
2022-11-26T14:37:18.789Z,8.77
2022-11-26T14:39:45.903Z,9.10
2022-11-26T14:42:24.016Z,8.48
2022-11-26T14:45:16.809Z,9.68
2022-11-26T14:47:51.881Z,8.60
2022-11-26T14:50:30.804Z,9.85
2022-11-26T14:53:12.782Z,11.20
2022-11-26T14:55:39.576Z,11.68
2022-11-26T14:58:16.886Z,12.20
2022-11-26T15:00:43.559Z,12.90
2022-11-26T15:03:32.294Z,11.35
2022-11-26T15:05:59.016Z,12.02
2022-11-26T15:08:33.792Z,11.10
2022-11-26T15:11:05.221Z,10.60
2022-11-26T15:13:44.825Z,10.85
2022-11-26T15:16:38.106Z,10.93
2022-11-26T15:19:12.912Z,10.75
2022-11-26T15:21:46.829Z,11.27
2022-11-26T15:24:21.885Z,13.77
2022-11-26T15:26:55.829Z,13.10
2022-11-26T15:29:35.830Z,14.65
2022-11-26T15:32:10.926Z,16.30
2022-11-26T15:34:44.798Z,14.80
2022-11-26T15:37:17.875Z,16.63
2022-11-26T15:39:44.474Z,15.10
2022-11-26T15:42:38.793Z,14.60
2022-11-26T15:45:19.881Z,15.00
2022-11-26T15:48:01.333Z,22.00
2022-11-26T15:50:39.810Z,19.90
2022-11-26T15:53:29.809Z,16.63
2022-11-26T15:55:56.731Z,16.67
2022-11-26T15:58:58.884Z,17.13
2022-11-26T16:01:28.725Z,14.65
2022-11-26T16:03:56.683Z,13.23
2022-11-26T16:06:46.773Z,14.02
2022-11-26T16:09:17.907Z,17.02
2022-11-26T16:12:06.819Z,18.15
2022-11-26T16:14:39.766Z,23.77
2022-11-26T16:17:20.890Z,17.35
2022-11-26T16:20:05.925Z,13.68
2022-11-26T16:22:40.880Z,13.95
2022-11-26T16:25:29.850Z,15.13
2022-11-26T16:28:17.848Z,15.38
2022-11-26T16:30:44.579Z,15.18
2022-11-26T16:33:17.798Z,16.40
2022-11-26T16:35:50.881Z,14.63
2022-11-26T16:38:20.234Z,15.82
2022-11-26T16:40:47.024Z,16.03
2022-11-26T16:43:20.894Z,15.25
2022-11-26T16:45:49.427Z,15.85
2022-11-26T16:48:34.270Z,19.52
2022-11-26T16:51:07.829Z,17.73
2022-11-26T16:53:48.928Z,19.30
2022-11-26T16:56:30.782Z,22.40
2022-11-26T16:59:05.793Z,18.15
2022-11-26T17:01:33.197Z,18.70
2022-11-26T17:04:06.985Z,19.35
2022-11-26T17:06:40.793Z,18.63
2022-11-26T17:09:15.616Z,15.82
2022-11-26T17:11:48.839Z,18.50
2022-11-26T17:14:15.668Z,21.50
2022-11-26T17:16:42.525Z,22.35
2022-11-26T17:19:13.381Z,26.25
2022-11-26T17:21:40.023Z,24.80
2022-11-26T17:24:07.380Z,23.77
2022-11-26T17:26:34.233Z,22.23
2022-11-26T17:29:08.815Z,32.00
2022-11-26T17:31:35.675Z,33.35
2022-11-26T17:34:08.809Z,29.92
2022-11-26T17:36:36.985Z,29.42
2022-11-26T17:39:10.830Z,21.33
2022-11-26T17:41:37.571Z,19.80
2022-11-26T17:44:04.360Z,19.83
2022-11-26T17:47:00.950Z,20.33
2022-11-26T17:49:24.415Z,20.05
2022-11-26T17:52:04.911Z,19.02
2022-11-26T17:54:38.889Z,21.23
2022-11-26T17:57:11.787Z,21.85
2022-11-26T17:59:39.154Z,21.45
2022-11-26T18:02:06.502Z,19.83
2022-11-26T18:04:39.944Z,21.23
2022-11-26T18:07:15.013Z,19.60
2022-11-26T18:09:48.841Z,18.98
2022-11-26T18:12:24.657Z,18.73
2022-11-26T18:15:00.811Z,26.85
2022-11-26T18:17:27.932Z,23.40
2022-11-26T18:19:54.662Z,20.85
2022-11-26T18:22:30.797Z,18.70
2022-11-26T18:25:03.849Z,18.73
2022-11-26T18:27:37.813Z,16.65
2022-11-26T18:30:11.792Z,17.38
2022-11-26T18:32:45.819Z,17.98
2022-11-26T18:35:19.796Z,18.83
2022-11-26T18:46:32.689Z,16.77
2022-11-26T18:49:00.497Z,17.67
2022-11-26T18:54:22.136Z,18.35
2022-11-26T18:56:48.735Z,18.25
2022-11-26T18:59:15.600Z,20.60
2022-11-26T19:01:43.659Z,21.38
2022-11-26T19:04:12.316Z,19.48
2022-11-26T19:06:39.897Z,20.75
2022-11-26T19:09:18.410Z,20.25
2022-11-26T19:11:46.114Z,21.20
2022-11-26T19:14:13.814Z,19.60
2022-11-26T19:16:41.677Z,20.00
2022-11-26T19:19:09.248Z,20.63
2022-11-26T19:21:36.510Z,20.33
2022-11-26T19:24:05.732Z,19.70
2022-11-26T19:26:33.126Z,20.13
2022-11-26T19:29:05.090Z,36.53
2022-11-26T19:31:36.090Z,45.58
2022-11-26T19:34:06.049Z,33.47
2022-11-26T19:36:33.844Z,32.97
2022-11-26T19:39:01.680Z,32.97
2022-11-26T19:41:29.076Z,25.13
2022-11-26T19:43:55.920Z,23.25
2022-11-26T19:46:24.547Z,24.65
2022-11-26T19:48:52.789Z,22.80
2022-11-26T19:51:21.366Z,23.23
2022-11-26T19:53:50.063Z,23.05
2022-11-26T19:56:19.942Z,24.52
2022-11-26T19:58:47.319Z,22.17
2022-11-26T20:01:18.732Z,22.63
2022-11-26T20:03:45.465Z,23.05
2022-11-26T20:06:17.667Z,22.50
2022-11-26T20:08:45.632Z,21.35
2022-11-26T20:11:12.866Z,19.25
2022-11-26T20:13:41.541Z,21.75
2022-11-26T20:16:11.006Z,21.83
2022-11-26T20:18:38.883Z,19.83
2022-11-26T20:21:09.644Z,18.60
2022-11-26T20:23:37.807Z,18.52
2022-11-26T20:26:11.885Z,19.27
2022-11-26T20:28:38.629Z,18.83
2022-11-26T20:31:05.756Z,19.55
2022-11-26T20:33:32.518Z,19.17
2022-11-26T20:35:59.238Z,21.27
2022-11-26T20:38:25.937Z,20.75
2022-11-26T20:40:52.530Z,19.25
2022-11-26T20:43:19.151Z,20.67
2022-11-26T20:45:46.825Z,19.23
2022-11-26T20:48:13.542Z,18.70
2022-11-26T20:50:40.255Z,18.10
2022-11-26T20:53:06.905Z,17.13
2022-11-26T20:55:33.699Z,17.48
2022-11-26T20:58:00.428Z,16.75
2022-11-26T21:00:27.831Z,17.83
2022-11-26T21:02:54.816Z,17.85
2022-11-26T21:05:23.087Z,17.02
2022-11-26T21:07:50.980Z,17.95
2022-11-26T21:10:18.161Z,17.85
2022-11-26T21:12:44.765Z,18.10
2022-11-26T21:15:11.773Z,17.85
2022-11-26T21:17:38.525Z,20.15
2022-11-26T21:20:06.389Z,18.30
2022-11-26T21:22:33.090Z,18.27
2022-11-26T21:24:59.698Z,17.63
2022-11-26T21:27:26.382Z,16.83
2022-11-26T21:29:53.132Z,16.63
2022-11-26T21:32:20.090Z,15.52
2022-11-26T21:34:46.725Z,16.42
2022-11-26T21:37:13.583Z,16.75
2022-11-26T21:39:40.389Z,16.98
2022-11-26T21:42:07.379Z,19.20
2022-11-26T21:44:34.113Z,17.75
2022-11-26T21:47:02.812Z,17.83
2022-11-26T21:49:31.322Z,16.83
2022-11-26T21:51:59.414Z,17.20
2022-11-26T21:54:29.530Z,17.95
2022-11-26T21:56:56.569Z,17.27
2022-11-26T21:59:23.176Z,17.00
2022-11-26T22:01:49.903Z,16.77
2022-11-26T22:04:19.212Z,18.02
2022-11-26T22:06:48.540Z,17.33
2022-11-26T22:09:16.453Z,18.20
2022-11-26T22:11:44.568Z,19.25
2022-11-26T22:14:14.566Z,19.20
2022-11-26T22:16:41.832Z,20.80
2022-11-26T22:19:08.824Z,21.65
2022-11-26T22:21:41.126Z,19.17
2022-11-26T22:24:11.549Z,18.35
2022-11-26T22:26:38.326Z,20.35
2022-11-26T22:29:05.163Z,19.45
2022-11-26T22:31:34.701Z,18.55
2022-11-26T22:34:05.251Z,19.98
2022-11-26T22:36:32.583Z,19.67
2022-11-26T22:38:59.533Z,17.15
2022-11-26T22:41:26.416Z,19.67
2022-11-26T22:43:53.245Z,17.23
2022-11-26T22:46:24.003Z,19.08
2022-11-26T22:48:53.240Z,17.70
2022-11-26T22:51:20.910Z,19.73
2022-11-26T22:53:51.977Z,17.10
2022-11-26T22:56:19.221Z,19.33
2022-11-26T22:58:45.972Z,17.75
2022-11-26T23:01:32.972Z,20.05
2022-11-26T23:04:01.389Z,18.10
2022-11-26T23:06:29.804Z,18.65
2022-11-26T23:08:58.270Z,19.42
2022-11-26T23:11:28.370Z,16.38
2022-11-26T23:13:55.877Z,20.55
2022-11-26T23:16:24.584Z,17.77
2022-11-26T23:18:53.597Z,17.92
2022-11-26T23:21:23.069Z,18.23
2022-11-26T23:23:50.067Z,18.55
2022-11-26T23:26:26.154Z,15.73
2022-11-26T23:28:53.926Z,18.00
2022-11-26T23:31:24.105Z,18.15
2022-11-26T23:36:18.533Z,17.92
2022-11-26T23:38:45.288Z,17.55
2022-11-26T23:41:11.973Z,19.42
2022-11-26T23:43:39.375Z,19.45
2022-11-26T23:46:07.521Z,18.10
2022-11-26T23:48:34.232Z,16.70
2022-11-26T23:51:05.220Z,19.23
2022-11-26T23:53:31.825Z,16.95
2022-11-26T23:56:03.724Z,17.85
2022-11-26T23:58:30.759Z,21.38
